sensor_id;sensor_type;location;lat;lon;timestamp;pressure;altitude;pressure_sealevel;temperature;humidity
48622;BME280;34421;48.944;9.460;2022-10-16T00:01:21;98356.09;;;16.58;87.57
48622;BME280;34421;48.944;9.460;2022-10-16T00:03:47;98369.53;;;16.58;87.57
48622;BME280;34421;48.944;9.460;2022-10-16T00:06:12;98370.34;;;16.59;87.71
48622;BME280;34421;48.944;9.460;2022-10-16T00:08:38;98371.72;;;16.61;87.70
48622;BME280;34421;48.944;9.460;2022-10-16T00:11:07;98382.47;;;16.61;87.97
48622;BME280;34421;48.944;9.460;2022-10-16T00:13:33;98378.69;;;16.62;88.07
48622;BME280;34421;48.944;9.460;2022-10-16T00:15:59;98374.97;;;16.63;88.03
48622;BME280;34421;48.944;9.460;2022-10-16T00:18:25;98372.81;;;16.66;87.95
48622;BME280;34421;48.944;9.460;2022-10-16T00:20:51;98362.91;;;16.66;88.71
48622;BME280;34421;48.944;9.460;2022-10-16T00:23:16;98365.09;;;16.69;88.58
48622;BME280;34421;48.944;9.460;2022-10-16T00:25:41;98367.78;;;16.69;87.75
48622;BME280;34421;48.944;9.460;2022-10-16T00:28:06;98363.22;;;16.70;88.62
48622;BME280;34421;48.944;9.460;2022-10-16T00:30:32;98364.81;;;16.71;88.19
48622;BME280;34421;48.944;9.460;2022-10-16T00:32:57;98362.13;;;16.71;88.64
48622;BME280;34421;48.944;9.460;2022-10-16T00:35:22;98355.72;;;16.72;87.85
48622;BME280;34421;48.944;9.460;2022-10-16T00:37:48;98358.41;;;16.72;88.05
48622;BME280;34421;48.944;9.460;2022-10-16T00:40:13;98351.13;;;16.72;88.54
48622;BME280;34421;48.944;9.460;2022-10-16T00:42:38;98350.34;;;16.72;88.43
48622;BME280;34421;48.944;9.460;2022-10-16T00:45:04;98353.81;;;16.72;88.66
48622;BME280;34421;48.944;9.460;2022-10-16T00:47:34;98350.56;;;16.70;88.46
48622;BME280;34421;48.944;9.460;2022-10-16T00:50:09;98364.00;;;16.70;88.30
48622;BME280;34421;48.944;9.460;2022-10-16T00:52:37;98369.66;;;16.69;88.73
48622;BME280;34421;48.944;9.460;2022-10-16T00:55:04;98371.50;;;16.68;88.09
48622;BME280;34421;48.944;9.460;2022-10-16T00:57:30;98379.03;;;16.66;88.51
48622;BME280;34421;48.944;9.460;2022-10-16T00:59:55;98385.22;;;16.67;88.88
48622;BME280;34421;48.944;9.460;2022-10-16T01:02:21;98380.88;;;16.66;89.15
48622;BME280;34421;48.944;9.460;2022-10-16T01:04:48;98382.53;;;16.67;88.70
48622;BME280;34421;48.944;9.460;2022-10-16T01:07:16;98379.84;;;16.67;89.07
48622;BME280;34421;48.944;9.460;2022-10-16T01:12:47;98374.47;;;16.67;88.98
48622;BME280;34421;48.944;9.460;2022-10-16T01:17:48;98386.25;;;16.66;88.37
48622;BME280;34421;48.944;9.460;2022-10-16T01:23:10;98398.09;;;16.64;88.25
48622;BME280;34421;48.944;9.460;2022-10-16T01:28:15;98395.97;;;16.67;88.99
48622;BME280;34421;48.944;9.460;2022-10-16T01:30:43;98384.66;;;16.64;89.02
48622;BME280;34421;48.944;9.460;2022-10-16T01:33:13;98390.81;;;16.65;88.15
48622;BME280;34421;48.944;9.460;2022-10-16T01:35:44;98379.28;;;16.64;88.92
48622;BME280;34421;48.944;9.460;2022-10-16T01:40:37;98373.31;;;16.62;89.16
48622;BME280;34421;48.944;9.460;2022-10-16T01:43:38;98371.72;;;16.61;89.13
48622;BME280;34421;48.944;9.460;2022-10-16T01:45:55;98374.66;;;16.60;89.06
48622;BME280;34421;48.944;9.460;2022-10-16T01:48:22;98381.66;;;16.61;89.31
48622;BME280;34421;48.944;9.460;2022-10-16T01:50:52;98380.84;;;16.60;89.19
48622;BME280;34421;48.944;9.460;2022-10-16T01:53:19;98379.19;;;16.59;88.78
48622;BME280;34421;48.944;9.460;2022-10-16T01:55:46;98383.78;;;16.59;88.24
48622;BME280;34421;48.944;9.460;2022-10-16T01:58:13;98384.84;;;16.58;88.18
48622;BME280;34421;48.944;9.460;2022-10-16T02:00:39;98381.59;;;16.56;89.26
48622;BME280;34421;48.944;9.460;2022-10-16T02:03:06;98378.91;;;16.56;89.25
48622;BME280;34421;48.944;9.460;2022-10-16T02:05:34;98384.03;;;16.57;89.31
48622;BME280;34421;48.944;9.460;2022-10-16T02:08:02;98380.53;;;16.57;89.13
48622;BME280;34421;48.944;9.460;2022-10-16T02:10:28;98385.91;;;16.57;88.59
48622;BME280;34421;48.944;9.460;2022-10-16T02:13:00;98374.31;;;16.56;89.26
48622;BME280;34421;48.944;9.460;2022-10-16T02:15:28;98369.78;;;16.57;89.40
48622;BME280;34421;48.944;9.460;2022-10-16T02:17:53;98369.78;;;16.57;88.70
48622;BME280;34421;48.944;9.460;2022-10-16T02:20:20;98364.41;;;16.57;88.48
48622;BME280;34421;48.944;9.460;2022-10-16T02:22:48;98370.59;;;16.57;89.20
48622;BME280;34421;48.944;9.460;2022-10-16T02:25:17;98368.72;;;16.58;89.36
48622;BME280;34421;48.944;9.460;2022-10-16T02:30:19;98377.59;;;16.58;89.35
48622;BME280;34421;48.944;9.460;2022-10-16T02:32:45;98375.97;;;16.57;88.61
48622;BME280;34421;48.944;9.460;2022-10-16T02:35:11;98370.59;;;16.57;88.64
48622;BME280;34421;48.944;9.460;2022-10-16T02:37:36;98381.59;;;16.56;88.59
48622;BME280;34421;48.944;9.460;2022-10-16T02:40:03;98390.47;;;16.56;88.49
48622;BME280;34421;48.944;9.460;2022-10-16T02:42:37;98386.97;;;16.56;89.31
48622;BME280;34421;48.944;9.460;2022-10-16T02:45:02;98387.78;;;16.56;89.01
48622;BME280;34421;48.944;9.460;2022-10-16T02:47:28;98378.91;;;16.56;89.13
48622;BME280;34421;48.944;9.460;2022-10-16T02:49:53;98370.59;;;16.57;89.37
48622;BME280;34421;48.944;9.460;2022-10-16T02:52:18;98384.03;;;16.57;88.94
48622;BME280;34421;48.944;9.460;2022-10-16T02:54:44;98377.03;;;16.56;89.31
48622;BME280;34421;48.944;9.460;2022-10-16T02:57:09;98379.72;;;16.56;88.90
48622;BME280;34421;48.944;9.460;2022-10-16T02:59:34;98383.47;;;16.55;89.00
48622;BME280;34421;48.944;9.460;2022-10-16T03:01:59;98375.66;;;16.54;89.33
48622;BME280;34421;48.944;9.460;2022-10-16T03:04:24;98380.22;;;16.53;89.13
48622;BME280;34421;48.944;9.460;2022-10-16T03:06:50;98381.84;;;16.54;89.44
48622;BME280;34421;48.944;9.460;2022-10-16T03:09:15;98377.53;;;16.53;89.33
48622;BME280;34421;48.944;9.460;2022-10-16T03:11:40;98378.59;;;16.52;89.37
48622;BME280;34421;48.944;9.460;2022-10-16T03:14:05;98383.97;;;16.52;89.47
48622;BME280;34421;48.944;9.460;2022-10-16T03:16:30;98382.34;;;16.51;88.79
48622;BME280;34421;48.944;9.460;2022-10-16T03:18:56;98379.91;;;16.50;88.92
48622;BME280;34421;48.944;9.460;2022-10-16T03:21:21;98387.97;;;16.50;88.61
48622;BME280;34421;48.944;9.460;2022-10-16T03:23:46;98386.34;;;16.49;89.39
48622;BME280;34421;48.944;9.460;2022-10-16T03:26:11;98396.28;;;16.48;89.09
48622;BME280;34421;48.944;9.460;2022-10-16T03:28:36;98391.72;;;16.49;88.73
48622;BME280;34421;48.944;9.460;2022-10-16T03:31:02;98386.03;;;16.45;89.00
48622;BME280;34421;48.944;9.460;2022-10-16T03:33:27;98387.09;;;16.44;89.51
48622;BME280;34421;48.944;9.460;2022-10-16T03:35:53;98380.09;;;16.43;88.69
48622;BME280;34421;48.944;9.460;2022-10-16T03:38:18;98381.97;;;16.43;88.55
48622;BME280;34421;48.944;9.460;2022-10-16T03:40:44;98380.59;;;16.40;89.24
48622;BME280;34421;48.944;9.460;2022-10-16T03:43:09;98382.19;;;16.36;89.61
48622;BME280;34421;48.944;9.460;2022-10-16T03:45:34;98388.59;;;16.35;89.63
48622;BME280;34421;48.944;9.460;2022-10-16T03:47:59;98390.72;;;16.33;89.33
48622;BME280;34421;48.944;9.460;2022-10-16T03:50:25;98385.84;;;16.30;89.48
48622;BME280;34421;48.944;9.460;2022-10-16T03:52:50;98396.03;;;16.28;89.54
48622;BME280;34421;48.944;9.460;2022-10-16T03:55:15;98398.16;;;16.26;88.92
48622;BME280;34421;48.944;9.460;2022-10-16T03:57:40;98394.88;;;16.24;88.99
48622;BME280;34421;48.944;9.460;2022-10-16T04:00:06;98389.50;;;16.24;88.76
48622;BME280;34421;48.944;9.460;2022-10-16T04:02:31;98395.16;;;16.22;88.80
48622;BME280;34421;48.944;9.460;2022-10-16T04:04:56;98394.34;;;16.22;89.21
48622;BME280;34421;48.944;9.460;2022-10-16T04:07:21;98390.28;;;16.19;88.53
48622;BME280;34421;48.944;9.460;2022-10-16T04:09:47;98392.38;;;16.17;89.56
48622;BME280;34421;48.944;9.460;2022-10-16T04:12:12;98390.78;;;16.16;88.71
48622;BME280;34421;48.944;9.460;2022-10-16T04:14:37;98396.66;;;16.13;89.03
48622;BME280;34421;48.944;9.460;2022-10-16T04:17:02;98401.22;;;16.12;88.60
48622;BME280;34421;48.944;9.460;2022-10-16T04:19:27;98397.94;;;16.10;88.58
48622;BME280;34421;48.944;9.460;2022-10-16T04:21:53;98399.81;;;16.10;88.86
48622;BME280;34421;48.944;9.460;2022-10-16T04:24:18;98407.06;;;16.09;88.69
48622;BME280;34421;48.944;9.460;2022-10-16T04:26:43;98406.50;;;16.07;89.38
48622;BME280;34421;48.944;9.460;2022-10-16T04:29:08;98413.97;;;16.05;88.87
48622;BME280;34421;48.944;9.460;2022-10-16T04:31:33;98411.28;;;16.05;88.44
48622;BME280;34421;48.944;9.460;2022-10-16T04:33:59;98423.34;;;16.03;88.66
48622;BME280;34421;48.944;9.460;2022-10-16T04:36:24;98411.78;;;16.02;89.17
48622;BME280;34421;48.944;9.460;2022-10-16T04:38:49;98424.19;;;16.03;88.63
48622;BME280;34421;48.944;9.460;2022-10-16T04:41:14;98419.84;;;16.02;88.60
48622;BME280;34421;48.944;9.460;2022-10-16T04:43:39;98417.97;;;16.03;88.58
48622;BME280;34421;48.944;9.460;2022-10-16T04:46:05;98420.66;;;16.03;88.50
48622;BME280;34421;48.944;9.460;2022-10-16T04:48:30;98414.75;;;16.01;88.55
48622;BME280;34421;48.944;9.460;2022-10-16T04:50:56;98426.28;;;16.01;88.59
48622;BME280;34421;48.944;9.460;2022-10-16T04:53:21;98434.34;;;16.01;88.26
48622;BME280;34421;48.944;9.460;2022-10-16T04:55:46;98437.84;;;16.02;89.14
48622;BME280;34421;48.944;9.460;2022-10-16T04:58:11;98434.09;;;16.03;89.23
48622;BME280;34421;48.944;9.460;2022-10-16T05:00:37;98434.34;;;16.01;89.16
48622;BME280;34421;48.944;9.460;2022-10-16T05:03:03;98430.00;;;16.00;89.22
48622;BME280;34421;48.944;9.460;2022-10-16T05:05:32;98428.97;;;16.01;88.46
48622;BME280;34421;48.944;9.460;2022-10-16T05:07:57;98437.03;;;16.01;89.40
48622;BME280;34421;48.944;9.460;2022-10-16T05:10:22;98451.03;;;16.03;88.60
48622;BME280;34421;48.944;9.460;2022-10-16T05:12:48;98452.06;;;16.02;89.38
48622;BME280;34421;48.944;9.460;2022-10-16T05:15:13;98454.75;;;16.02;88.73
48622;BME280;34421;48.944;9.460;2022-10-16T05:17:38;98456.41;;;16.03;88.84
48622;BME280;34421;48.944;9.460;2022-10-16T05:20:04;98455.81;;;16.01;89.50
48622;BME280;34421;48.944;9.460;2022-10-16T05:22:29;98453.16;;;16.01;88.64
48622;BME280;34421;48.944;9.460;2022-10-16T05:24:54;98452.34;;;16.01;89.33
48622;BME280;34421;48.944;9.460;2022-10-16T05:27:19;98445.09;;;16.01;88.87
48622;BME280;34421;48.944;9.460;2022-10-16T05:29:45;98450.19;;;16.03;88.65
48622;BME280;34421;48.944;9.460;2022-10-16T05:32:11;98449.38;;;16.02;88.62
48622;BME280;34421;48.944;9.460;2022-10-16T05:34:36;98432.47;;;16.02;88.65
48622;BME280;34421;48.944;9.460;2022-10-16T05:37:02;98444.00;;;16.02;89.18
48622;BME280;34421;48.944;9.460;2022-10-16T05:39:27;98448.00;;;16.00;89.51
48622;BME280;34421;48.944;9.460;2022-10-16T05:41:52;98449.66;;;16.01;88.62
48622;BME280;34421;48.944;9.460;2022-10-16T05:44:17;98453.38;;;16.00;88.95
48622;BME280;34421;48.944;9.460;2022-10-16T05:46:42;98452.34;;;16.01;89.06
48622;BME280;34421;48.944;9.460;2022-10-16T05:49:07;98447.19;;;15.99;89.48
48622;BME280;34421;48.944;9.460;2022-10-16T05:51:33;98454.44;;;15.99;89.44
48622;BME280;34421;48.944;9.460;2022-10-16T05:53:58;98467.59;;;16.00;89.16
48622;BME280;34421;48.944;9.460;2022-10-16T05:56:23;98470.56;;;15.99;89.09
48622;BME280;34421;48.944;9.460;2022-10-16T05:58:48;98470.56;;;15.99;88.67
48622;BME280;34421;48.944;9.460;2022-10-16T06:01:14;98465.19;;;15.99;88.71
48622;BME280;34421;48.944;9.460;2022-10-16T06:03:40;98456.31;;;15.98;89.26
48622;BME280;34421;48.944;9.460;2022-10-16T06:06:12;98467.88;;;15.99;88.63
48622;BME280;34421;48.944;9.460;2022-10-16T06:08:38;98468.09;;;15.97;88.57
48622;BME280;34421;48.944;9.460;2022-10-16T06:11:04;98475.13;;;15.98;89.10
48622;BME280;34421;48.944;9.460;2022-10-16T06:13:30;98481.03;;;16.00;88.69
48622;BME280;34421;48.944;9.460;2022-10-16T06:15:56;98485.38;;;16.01;89.03
48622;BME280;34421;48.944;9.460;2022-10-16T06:18:22;98481.63;;;16.02;88.79
48622;BME280;34421;48.944;9.460;2022-10-16T06:20:47;98482.19;;;16.04;88.60
48622;BME280;34421;48.944;9.460;2022-10-16T06:23:12;98486.50;;;16.05;89.17
48622;BME280;34421;48.944;9.460;2022-10-16T06:25:37;98492.94;;;16.04;88.38
48622;BME280;34421;48.944;9.460;2022-10-16T06:28:03;98491.31;;;16.03;88.64
48622;BME280;34421;48.944;9.460;2022-10-16T06:30:28;98497.22;;;16.05;88.40
48622;BME280;34421;48.944;9.460;2022-10-16T06:32:53;98488.94;;;16.07;88.52
48622;BME280;34421;48.944;9.460;2022-10-16T06:35:18;98496.75;;;16.08;89.14
48622;BME280;34421;48.944;9.460;2022-10-16T06:37:43;98502.44;;;16.12;88.50
48622;BME280;34421;48.944;9.460;2022-10-16T06:40:09;98502.78;;;16.15;89.49
48622;BME280;34421;48.944;9.460;2022-10-16T06:42:34;98499.59;;;16.18;89.29
48622;BME280;34421;48.944;9.460;2022-10-16T06:44:59;98495.84;;;16.20;88.77
48622;BME280;34421;48.944;9.460;2022-10-16T06:47:24;98503.41;;;16.23;88.37
48622;BME280;34421;48.944;9.460;2022-10-16T06:49:50;98499.16;;;16.27;89.09
48622;BME280;34421;48.944;9.460;2022-10-16T06:52:15;98507.31;;;16.32;88.37
48622;BME280;34421;48.944;9.460;2022-10-16T06:54:40;98497.94;;;16.34;88.63
48622;BME280;34421;48.944;9.460;2022-10-16T06:57:05;98511.69;;;16.38;88.60
48622;BME280;34421;48.944;9.460;2022-10-16T06:59:30;98517.38;;;16.41;88.42
48622;BME280;34421;48.944;9.460;2022-10-16T07:01:56;98517.72;;;16.45;88.51
48622;BME280;34421;48.944;9.460;2022-10-16T07:04:21;98517.22;;;16.48;88.49
48622;BME280;34421;48.944;9.460;2022-10-16T07:06:46;98531.22;;;16.50;88.86
48622;BME280;34421;48.944;9.460;2022-10-16T07:09:11;98550.59;;;16.52;87.98
48622;BME280;34421;48.944;9.460;2022-10-16T07:11:37;98555.97;;;16.52;88.85
48622;BME280;34421;48.944;9.460;2022-10-16T07:14:03;98551.66;;;16.51;88.70
48622;BME280;34421;48.944;9.460;2022-10-16T07:16:29;98547.72;;;16.59;88.28
48622;BME280;34421;48.944;9.460;2022-10-16T07:18:56;98545.44;;;16.68;88.72
48622;BME280;34421;48.944;9.460;2022-10-16T07:21:25;98550.88;;;16.73;88.32
48622;BME280;34421;48.944;9.460;2022-10-16T07:23:51;98555.81;;;16.76;87.95
48622;BME280;34421;48.944;9.460;2022-10-16T07:26:16;98561.50;;;16.79;88.67
48622;BME280;34421;48.944;9.460;2022-10-16T07:28:42;98558.06;;;16.84;88.69
48622;BME280;34421;48.944;9.460;2022-10-16T07:31:09;98564.56;;;16.88;88.68
48622;BME280;34421;48.944;9.460;2022-10-16T07:33:36;98568.63;;;16.91;88.30
48622;BME280;34421;48.944;9.460;2022-10-16T07:36:01;98566.44;;;16.88;88.53
48622;BME280;34421;48.944;9.460;2022-10-16T07:38:26;98564.56;;;16.88;87.96
48622;BME280;34421;48.944;9.460;2022-10-16T07:40:55;98575.31;;;16.88;88.12
48622;BME280;34421;48.944;9.460;2022-10-16T07:43:21;98573.69;;;16.87;88.54
48622;BME280;34421;48.944;9.460;2022-10-16T07:45:47;98588.19;;;16.86;87.89
48622;BME280;34421;48.944;9.460;2022-10-16T07:48:14;98594.06;;;16.83;87.93
48622;BME280;34421;48.944;9.460;2022-10-16T07:50:39;98594.56;;;16.80;88.57
48622;BME280;34421;48.944;9.460;2022-10-16T07:53:04;98589.69;;;16.77;88.86
48622;BME280;34421;48.944;9.460;2022-10-16T07:55:29;98596.13;;;16.76;88.74
48622;BME280;34421;48.944;9.460;2022-10-16T07:57:54;98596.13;;;16.76;88.92
48622;BME280;34421;48.944;9.460;2022-10-16T08:00:20;98593.44;;;16.76;88.88
48622;BME280;34421;48.944;9.460;2022-10-16T08:02:45;98595.88;;;16.77;88.30
48622;BME280;34421;48.944;9.460;2022-10-16T08:05:10;98601.81;;;16.79;88.21
48622;BME280;34421;48.944;9.460;2022-10-16T08:07:35;98597.81;;;16.82;88.50
48622;BME280;34421;48.944;9.460;2022-10-16T08:10:00;98601.63;;;16.86;88.64
48622;BME280;34421;48.944;9.460;2022-10-16T08:12:26;98610.34;;;16.93;88.35
48622;BME280;34421;48.944;9.460;2022-10-16T08:14:51;98602.19;;;17.05;88.25
48622;BME280;34421;48.944;9.460;2022-10-16T08:17:16;98613.88;;;17.16;88.39
48622;BME280;34421;48.944;9.460;2022-10-16T08:19:45;98603.25;;;17.26;88.18
48622;BME280;34421;48.944;9.460;2022-10-16T08:22:10;98596.38;;;17.35;87.73
48622;BME280;34421;48.944;9.460;2022-10-16T08:24:35;98600.25;;;17.44;88.09
48622;BME280;34421;48.944;9.460;2022-10-16T08:27:01;98611.31;;;17.48;87.85
48622;BME280;34421;48.944;9.460;2022-10-16T08:29:27;98611.69;;;17.57;87.87
48622;BME280;34421;48.944;9.460;2022-10-16T08:31:52;98612.28;;;17.64;87.83
48622;BME280;34421;48.944;9.460;2022-10-16T08:34:17;98606.97;;;17.69;87.61
48622;BME280;34421;48.944;9.460;2022-10-16T08:36:43;98612.97;;;17.76;87.79
48622;BME280;34421;48.944;9.460;2022-10-16T08:39:08;98600.72;;;17.85;87.22
48622;BME280;34421;48.944;9.460;2022-10-16T08:44:19;98617.06;;;18.06;87.17
48622;BME280;34421;48.944;9.460;2022-10-16T08:49:19;98627.63;;;18.12;87.15
48622;BME280;34421;48.944;9.460;2022-10-16T08:51:44;98634.19;;;18.21;87.39
48622;BME280;34421;48.944;9.460;2022-10-16T08:56:36;98628.41;;;18.40;86.89
48622;BME280;34421;48.944;9.460;2022-10-16T08:59:01;98635.81;;;18.55;86.83
48622;BME280;34421;48.944;9.460;2022-10-16T09:01:43;98627.81;;;18.70;86.98
48622;BME280;34421;48.944;9.460;2022-10-16T09:11:54;98631.25;;;18.93;86.22
48622;BME280;34421;48.944;9.460;2022-10-16T09:16:56;98618.88;;;19.02;86.47
48622;BME280;34421;48.944;9.460;2022-10-16T09:19:25;98631.88;;;19.10;86.19
48622;BME280;34421;48.944;9.460;2022-10-16T09:21:52;98627.56;;;19.14;86.48
48622;BME280;34421;48.944;9.460;2022-10-16T09:24:20;98638.66;;;19.18;86.32
48622;BME280;34421;48.944;9.460;2022-10-16T09:26:46;98639.47;;;19.18;86.43
48622;BME280;34421;48.944;9.460;2022-10-16T09:29:18;98643.28;;;19.22;86.44
48622;BME280;34421;48.944;9.460;2022-10-16T09:31:45;98633.00;;;19.24;86.13
48622;BME280;34421;48.944;9.460;2022-10-16T09:34:14;98642.78;;;19.30;85.83
48622;BME280;34421;48.944;9.460;2022-10-16T09:36:44;98652.81;;;19.40;86.21
48622;BME280;34421;48.944;9.460;2022-10-16T09:39:11;98633.66;;;19.47;85.93
48622;BME280;34421;48.944;9.460;2022-10-16T09:41:40;98655.28;;;19.52;85.67
48622;BME280;34421;48.944;9.460;2022-10-16T09:44:15;98655.03;;;19.58;85.50
48622;BME280;34421;48.944;9.460;2022-10-16T09:46:42;98652.91;;;19.61;85.72
48622;BME280;34421;48.944;9.460;2022-10-16T09:51:45;98658.00;;;19.57;85.15
48622;BME280;34421;48.944;9.460;2022-10-16T09:56:36;98659.91;;;19.62;84.78
48622;BME280;34421;48.944;9.460;2022-10-16T09:59:08;98661.88;;;19.66;84.75
48622;BME280;34421;48.944;9.460;2022-10-16T10:01:36;98662.41;;;19.73;84.62
48622;BME280;34421;48.944;9.460;2022-10-16T10:04:03;98662.44;;;19.78;84.67
48622;BME280;34421;48.944;9.460;2022-10-16T10:06:29;98670.28;;;19.85;83.68
48622;BME280;34421;48.944;9.460;2022-10-16T10:14:16;98671.13;;;20.01;82.38
48622;BME280;34421;48.944;9.460;2022-10-16T10:16:41;98675.75;;;20.11;82.07
48622;BME280;34421;48.944;9.460;2022-10-16T10:19:13;98666.84;;;20.20;81.78
48622;BME280;34421;48.944;9.460;2022-10-16T10:21:39;98677.66;;;20.31;81.68
48622;BME280;34421;48.944;9.460;2022-10-16T10:24:04;98682.81;;;20.37;80.71
48622;BME280;34421;48.944;9.460;2022-10-16T10:26:30;98678.50;;;20.41;80.88
48622;BME280;34421;48.944;9.460;2022-10-16T10:29:46;98676.06;;;20.45;80.11
48622;BME280;34421;48.944;9.460;2022-10-16T10:31:58;98680.41;;;20.51;79.74
48622;BME280;34421;48.944;9.460;2022-10-16T10:37:27;98686.38;;;20.63;76.29
48622;BME280;34421;48.944;9.460;2022-10-16T10:40:08;98681.53;;;20.70;75.19
48622;BME280;34421;48.944;9.460;2022-10-16T10:45:42;98683.38;;;20.96;73.43
48622;BME280;34421;48.944;9.460;2022-10-16T10:58:15;98692.13;;;21.73;69.31
48622;BME280;34421;48.944;9.460;2022-10-16T11:03:25;98687.66;;;22.02;67.38
48622;BME280;34421;48.944;9.460;2022-10-16T11:05:56;98692.44;;;22.21;67.44
48622;BME280;34421;48.944;9.460;2022-10-16T11:08:27;98686.69;;;22.33;66.42
48622;BME280;34421;48.944;9.460;2022-10-16T11:10:58;98691.72;;;22.49;65.06
48622;BME280;34421;48.944;9.460;2022-10-16T11:15:52;98686.25;;;22.84;63.26
48622;BME280;34421;48.944;9.460;2022-10-16T11:18:20;98681.56;;;23.00;62.57
48622;BME280;34421;48.944;9.460;2022-10-16T11:20:48;98675.44;;;23.13;61.07
48622;BME280;34421;48.944;9.460;2022-10-16T11:26:00;98675.22;;;23.33;60.51
48622;BME280;34421;48.944;9.460;2022-10-16T11:28:37;98669.72;;;23.38;59.86
48622;BME280;34421;48.944;9.460;2022-10-16T11:33:54;98659.47;;;23.54;59.04
48622;BME280;34421;48.944;9.460;2022-10-16T11:36:27;98667.34;;;23.56;59.13
48622;BME280;34421;48.944;9.460;2022-10-16T11:41:51;98657.19;;;23.42;58.60
48622;BME280;34421;48.944;9.460;2022-10-16T11:47:05;98664.13;;;23.30;58.54
48622;BME280;34421;48.944;9.460;2022-10-16T11:49:32;98657.06;;;23.29;57.93
48622;BME280;34421;48.944;9.460;2022-10-16T11:54:52;98664.56;;;23.37;57.93
48622;BME280;34421;48.944;9.460;2022-10-16T12:07:39;98676.41;;;23.46;55.96
48622;BME280;34421;48.944;9.460;2022-10-16T12:10:10;98670.72;;;23.48;55.27
48622;BME280;34421;48.944;9.460;2022-10-16T12:15:19;98672.22;;;23.59;54.51
48622;BME280;34421;48.944;9.460;2022-10-16T12:17:46;98669.53;;;23.54;54.84
48622;BME280;34421;48.944;9.460;2022-10-16T12:22:36;98665.78;;;23.50;54.56
48622;BME280;34421;48.944;9.460;2022-10-16T12:25:02;98664.78;;;23.64;54.39
48622;BME280;34421;48.944;9.460;2022-10-16T12:27:31;98662.94;;;23.84;53.91
48622;BME280;34421;48.944;9.460;2022-10-16T12:29:57;98656.53;;;23.94;53.88
48622;BME280;34421;48.944;9.460;2022-10-16T12:32:27;98660.31;;;24.17;53.42
48622;BME280;34421;48.944;9.460;2022-10-16T12:34:53;98659.41;;;24.40;53.03
48622;BME280;34421;48.944;9.460;2022-10-16T12:37:26;98652.94;;;24.55;52.69
48622;BME280;34421;48.944;9.460;2022-10-16T12:39:52;98656.63;;;24.78;52.61
48622;BME280;34421;48.944;9.460;2022-10-16T12:44:52;98655.34;;;25.03;51.88
48622;BME280;34421;48.944;9.460;2022-10-16T12:47:22;98659.25;;;25.30;50.54
48622;BME280;34421;48.944;9.460;2022-10-16T12:49:48;98651.97;;;25.53;50.67
48622;BME280;34421;48.944;9.460;2022-10-16T12:52:56;98651.75;;;25.49;49.61
48622;BME280;34421;48.944;9.460;2022-10-16T12:55:03;98661.34;;;25.60;50.80
48622;BME280;34421;48.944;9.460;2022-10-16T13:00:21;98663.44;;;25.77;49.75
48622;BME280;34421;48.944;9.460;2022-10-16T13:02:56;98667.41;;;25.71;47.86
48622;BME280;34421;48.944;9.460;2022-10-16T13:08:18;98664.97;;;25.97;49.12
48622;BME280;34421;48.944;9.460;2022-10-16T13:16:02;98670.03;;;26.49;47.44
48622;BME280;34421;48.944;9.460;2022-10-16T13:21:18;98679.88;;;26.00;48.10
48622;BME280;34421;48.944;9.460;2022-10-16T13:23:55;98680.44;;;25.74;48.09
48622;BME280;34421;48.944;9.460;2022-10-16T13:29:05;98678.22;;;25.35;49.79
48622;BME280;34421;48.944;9.460;2022-10-16T13:31:30;98676.19;;;25.27;49.69
48622;BME280;34421;48.944;9.460;2022-10-16T13:33:57;98682.84;;;25.20;49.99
48622;BME280;34421;48.944;9.460;2022-10-16T13:36:33;98686.25;;;25.12;50.24
48622;BME280;34421;48.944;9.460;2022-10-16T13:39:41;98683.19;;;25.00;51.24
48622;BME280;34421;48.944;9.460;2022-10-16T13:44:27;98686.47;;;24.83;51.82
48622;BME280;34421;48.944;9.460;2022-10-16T13:46:59;98687.66;;;24.77;52.03
48622;BME280;34421;48.944;9.460;2022-10-16T13:49:25;98684.75;;;24.73;51.93
48622;BME280;34421;48.944;9.460;2022-10-16T13:51:54;98680.50;;;24.67;52.08
48622;BME280;34421;48.944;9.460;2022-10-16T13:54:20;98687.13;;;24.61;51.82
48622;BME280;34421;48.944;9.460;2022-10-16T13:56:45;98683.28;;;24.62;51.57
48622;BME280;34421;48.944;9.460;2022-10-16T14:01:48;98680.34;;;25.38;52.10
48622;BME280;34421;48.944;9.460;2022-10-16T14:04:14;98677.50;;;25.71;51.33
48622;BME280;34421;48.944;9.460;2022-10-16T14:06:41;98676.00;;;25.64;51.67
48622;BME280;34421;48.944;9.460;2022-10-16T14:11:51;98670.06;;;26.12;51.36
48622;BME280;34421;48.944;9.460;2022-10-16T14:14:17;98669.28;;;26.34;50.65
48622;BME280;34421;48.944;9.460;2022-10-16T14:16:43;98664.84;;;26.61;51.23
48622;BME280;34421;48.944;9.460;2022-10-16T14:19:18;98668.03;;;26.86;51.22
48622;BME280;34421;48.944;9.460;2022-10-16T14:21:45;98663.09;;;26.88;50.27
48622;BME280;34421;48.944;9.460;2022-10-16T14:24:11;98664.28;;;26.73;50.74
48622;BME280;34421;48.944;9.460;2022-10-16T14:26:40;98662.28;;;26.42;51.02
48622;BME280;34421;48.944;9.460;2022-10-16T14:29:17;98675.53;;;26.12;50.57
48622;BME280;34421;48.944;9.460;2022-10-16T14:31:53;98671.75;;;25.86;51.03
48622;BME280;34421;48.944;9.460;2022-10-16T14:34:23;98668.44;;;25.61;51.46
48622;BME280;34421;48.944;9.460;2022-10-16T14:36:49;98670.63;;;25.45;52.16
48622;BME280;34421;48.944;9.460;2022-10-16T14:39:17;98681.66;;;25.27;53.14
48622;BME280;34421;48.944;9.460;2022-10-16T14:41:45;98677.34;;;25.07;52.83
48622;BME280;34421;48.944;9.460;2022-10-16T14:44:11;98670.25;;;24.92;53.92
48622;BME280;34421;48.944;9.460;2022-10-16T14:46:37;98674.06;;;24.77;54.11
48622;BME280;34421;48.944;9.460;2022-10-16T14:49:04;98666.88;;;24.67;54.66
48622;BME280;34421;48.944;9.460;2022-10-16T14:51:36;98664.63;;;24.55;54.67
48622;BME280;34421;48.944;9.460;2022-10-16T14:54:03;98676.19;;;24.47;55.46
48622;BME280;34421;48.944;9.460;2022-10-16T14:59:57;98682.94;;;24.31;55.72
48622;BME280;34421;48.944;9.460;2022-10-16T15:01:57;98678.47;;;24.21;56.68
48622;BME280;34421;48.944;9.460;2022-10-16T15:04:23;98683.44;;;24.14;57.32